Time;durP1;ratioP1;P1;durP2;ratioP2;P2;SDS_P1;SDS_P2;PMS_P1;PMS_P2;Temp;Humidity;BMP_temperature;BMP_pressure;BME280_temperature;BME280_humidity;BME280_pressure;Samples;Min_cycle;Max_cycle;Signal;HPM_P1;HPM_P2
2022/05/20 04:03:31;;;;;;;1.40;1.30;;;18.80;96.30;;;;;;5013294;28;20993;-74
2022/05/20 04:05:57;;;;;;;2.17;1.80;;;19.00;96.30;;;;;;5013741;28;20412;-75
2022/05/20 04:08:22;;;;;;;2.80;1.33;;;19.10;96.30;;;;;;5013247;28;20608;-79
2022/05/20 04:10:48;;;;;;;1.73;1.23;;;19.20;96.30;;;;;;5013695;28;20196;-74
2022/05/20 04:13:13;;;;;;;2.10;1.37;;;19.40;96.30;;;;;;5013711;28;20180;-75
2022/05/20 04:15:39;;;;;;;1.47;1.27;;;19.60;96.30;;;;;;5014691;28;20192;-78
2022/05/20 04:18:05;;;;;;;2.90;1.70;;;20.00;96.30;;;;;;5003822;28;20181;-78
2022/05/20 04:23:05;;;;;;;7.83;1.70;;;20.90;96.30;;;;;;5751631;23;20228;-75
2022/05/20 04:25:31;;;;;;;2.10;1.57;;;21.20;96.30;;;;;;5013021;28;20414;-76
2022/05/20 04:27:56;;;;;;;2.87;1.40;;;21.10;96.30;;;;;;5011704;28;20231;-74
2022/05/20 04:30:22;;;;;;;1.30;1.20;;;21.20;96.30;;;;;;4992087;28;20641;-75
2022/05/20 04:32:47;;;;;;;1.70;1.37;;;21.30;96.30;;;;;;4974317;28;20638;-75
2022/05/20 04:35:13;;;;;;;2.63;1.60;;;21.40;96.30;;;;;;4974263;28;20253;-75
2022/05/20 04:37:38;;;;;;;3.20;1.50;;;21.40;96.30;;;;;;4973578;28;20886;-75
2022/05/20 04:40:05;;;;;;;3.73;1.60;;;22.00;96.30;;;;;;4974424;28;20253;-75
2022/05/20 04:48:01;;;;;;;1.60;1.50;;;22.70;96.30;;;;;;4978046;28;20700;-77
2022/05/20 04:50:27;;;;;;;5.77;1.50;;;22.60;96.30;;;;;;4991066;28;20424;-74
2022/05/20 04:52:52;;;;;;;2.13;1.40;;;22.90;96.30;;;;;;5007142;28;20423;-75
2022/05/20 04:55:18;;;;;;;3.00;1.60;;;23.60;96.30;;;;;;4995637;28;20619;-77
2022/05/20 04:57:49;;;;;;;1.97;1.83;;;24.10;96.30;;;;;;4991266;28;20173;-75
2022/05/20 05:00:21;;;;;;;1.77;1.50;;;24.40;94.40;;;;;;4993089;28;20200;-77
2022/05/20 05:02:47;;;;;;;3.20;1.50;;;24.40;94.70;;;;;;4993125;28;20424;-76
2022/05/20 05:05:19;;;;;;;2.27;1.50;;;24.40;94.60;;;;;;4994348;28;20430;-75
2022/05/20 05:07:47;;;;;;;2.10;1.30;;;24.70;94.80;;;;;;4993128;28;20416;-75
2022/05/20 05:10:16;;;;;;;1.53;1.30;;;24.30;96.30;;;;;;5009124;28;20927;-75
2022/05/20 05:12:42;;;;;;;2.90;1.40;;;25.10;92.60;;;;;;4993231;28;20427;-75
2022/05/20 05:15:08;;;;;;;1.80;1.63;;;25.50;92.20;;;;;;4998237;28;20514;-75
2022/05/20 05:20:21;;;;;;;1.90;1.43;;;26.00;91.60;;;;;;4995168;28;20443;-75
2022/05/20 05:22:54;;;;;;;1.90;1.33;;;26.00;90.10;;;;;;4991828;28;20501;-77
2022/05/20 05:25:23;;;;;;;7.90;1.47;;;26.30;91.20;;;;;;4994376;28;20941;-75
2022/05/20 05:27:49;;;;;;;6.70;1.80;;;25.60;90.20;;;;;;5012123;28;20425;-75
2022/05/20 05:30:15;;;;;;;3.30;1.63;;;25.10;92.10;;;;;;4995480;28;20416;-75
2022/05/20 05:32:41;;;;;;;2.30;1.53;;;24.60;92.80;;;;;;4993177;28;20446;-75
2022/05/20 05:35:10;;;;;;;2.03;1.37;;;24.60;94.20;;;;;;4991916;28;21026;-74
2022/05/20 05:37:37;;;;;;;1.73;1.50;;;24.60;95.00;;;;;;4994133;28;20213;-75
2022/05/20 05:40:05;;;;;;;1.90;1.50;;;24.40;93.70;;;;;;4982143;28;20430;-75
2022/05/20 05:42:30;;;;;;;2.90;1.50;;;24.80;95.50;;;;;;4982542;28;20427;-75
2022/05/20 05:44:56;;;;;;;3.03;1.80;;;25.70;91.10;;;;;;5009727;28;20420;-76
2022/05/20 05:47:22;;;;;;;2.30;1.30;;;24.30;93.90;;;;;;4991616;28;20752;-77
2022/05/20 05:49:48;;;;;;;1.90;1.60;;;24.10;96.30;;;;;;4979529;28;20244;-77
2022/05/20 05:52:13;;;;;;;2.90;1.50;;;23.80;96.30;;;;;;4980451;28;20527;-75
2022/05/20 05:54:39;;;;;;;3.53;2.10;;;24.20;96.30;;;;;;4992042;28;21646;-75
2022/05/20 05:57:06;;;;;;;5.47;1.77;;;25.10;96.00;;;;;;4962964;28;20169;-75
2022/05/20 05:59:32;;;;;;;3.23;1.60;;;24.90;92.60;;;;;;4987522;28;20180;-75
2022/05/20 06:02:02;;;;;;;2.67;1.87;;;23.90;96.30;;;;;;5001272;28;20801;-75
2022/05/20 06:04:28;;;;;;;2.90;1.73;;;22.70;96.30;;;;;;4986303;28;20185;-75
2022/05/20 06:06:54;;;;;;;2.97;1.83;;;22.50;96.30;;;;;;4987948;28;20435;-75
2022/05/20 06:09:20;;;;;;;9.23;1.80;;;22.60;96.30;;;;;;4990077;28;20264;-74
2022/05/20 06:11:45;;;;;;;2.73;1.90;;;22.30;96.30;;;;;;4985133;28;20573;-75
2022/05/20 06:14:11;;;;;;;3.63;1.90;;;22.60;96.30;;;;;;4992237;28;20424;-75
2022/05/20 06:16:38;;;;;;;3.10;1.93;;;22.70;96.30;;;;;;4992356;28;20178;-74
2022/05/20 06:19:04;;;;;;;4.10;2.20;;;22.80;96.30;;;;;;4995477;28;20181;-74
2022/05/20 06:21:29;;;;;;;1.83;1.60;;;23.00;96.30;;;;;;4991547;28;20448;-74
2022/05/20 06:23:55;;;;;;;5.43;1.80;;;23.00;96.30;;;;;;4994477;28;20556;-76
2022/05/20 06:26:21;;;;;;;4.27;2.30;;;23.80;96.30;;;;;;5013952;28;20212;-75
2022/05/20 06:28:47;;;;;;;1.40;1.30;;;25.20;96.30;;;;;;5004359;28;20719;-75
2022/05/20 06:31:12;;;;;;;2.63;2.13;;;25.90;93.80;;;;;;5007545;28;20603;-75
2022/05/20 06:33:38;;;;;;;4.40;1.67;;;26.90;90.40;;;;;;4995429;28;20584;-74
2022/05/20 06:41:48;;;;;;;6.00;2.00;;;27.20;88.40;;;;;;4920764;29;20439;-75
2022/05/20 06:44:15;;;;;;;4.33;1.73;;;27.80;86.30;;;;;;4982942;28;20431;-75
2022/05/20 06:46:41;;;;;;;2.53;2.10;;;28.00;86.60;;;;;;4991380;28;20177;-75
2022/05/20 06:49:06;;;;;;;3.13;1.63;;;28.70;82.50;;;;;;4991067;28;20428;-75
2022/05/20 06:51:35;;;;;;;3.03;2.07;;;28.70;84.10;;;;;;4995523;28;20213;-75
2022/05/20 06:54:03;;;;;;;3.67;1.83;;;28.50;84.70;;;;;;5000152;28;20236;-75
2022/05/20 06:56:30;;;;;;;1.93;1.73;;;28.50;86.70;;;;;;4995089;28;20455;-75
2022/05/20 06:58:57;;;;;;;3.83;1.57;;;28.70;84.20;;;;;;4993404;28;20436;-75
2022/05/20 07:01:23;;;;;;;9.40;2.27;;;27.00;84.50;;;;;;5000363;28;20443;-75
2022/05/20 07:03:49;;;;;;;2.00;1.80;;;26.90;87.60;;;;;;4994130;28;20766;-77
2022/05/20 07:06:16;;;;;;;3.30;2.17;;;27.10;88.70;;;;;;4993797;28;20212;-76
2022/05/20 07:08:46;;;;;;;1.83;1.70;;;27.00;87.30;;;;;;4981060;28;20203;-77
2022/05/20 07:11:12;;;;;;;4.90;1.50;;;27.20;89.50;;;;;;4989170;28;21020;-74
2022/05/20 07:13:38;;;;;;;2.23;1.90;;;26.60;90.40;;;;;;4988532;28;20428;-75
2022/05/20 07:16:04;;;;;;;6.40;2.50;;;26.50;91.00;;;;;;4995778;28;20205;-75
2022/05/20 07:18:29;;;;;;;3.97;1.93;;;26.50;89.10;;;;;;5005572;28;20184;-75
2022/05/20 07:20:56;;;;;;;3.43;1.60;;;26.70;88.80;;;;;;5006978;28;20962;-75
2022/05/20 07:23:24;;;;;;;2.27;1.80;;;27.10;91.00;;;;;;4999045;28;20199;-77
2022/05/20 07:25:50;;;;;;;4.97;2.00;;;27.50;86.30;;;;;;4994641;28;20428;-75
2022/05/20 07:28:16;;;;;;;12.70;1.87;;;27.60;88.00;;;;;;4995597;28;20448;-75
2022/05/20 07:30:42;;;;;;;3.03;1.93;;;27.50;85.20;;;;;;5006582;28;20474;-76
2022/05/20 07:33:07;;;;;;;3.43;1.90;;;27.60;89.20;;;;;;4994724;28;20173;-78
2022/05/20 07:35:33;;;;;;;2.40;1.30;;;27.70;87.30;;;;;;4993717;28;20229;-75
2022/05/20 07:37:58;;;;;;;3.20;1.90;;;27.90;85.20;;;;;;4994506;28;20216;-75
2022/05/20 07:40:24;;;;;;;3.30;1.70;;;27.60;84.50;;;;;;4984180;28;20646;-75
2022/05/20 07:42:51;;;;;;;1.50;1.40;;;27.00;84.80;;;;;;4993958;28;20554;-77
2022/05/20 07:45:17;;;;;;;1.73;1.40;;;26.10;92.00;;;;;;4994723;28;20180;-75
2022/05/20 07:47:43;;;;;;;5.73;1.77;;;26.50;89.80;;;;;;4994393;28;20405;-75
2022/05/20 07:50:09;;;;;;;2.10;1.47;;;26.30;91.10;;;;;;4994519;28;20242;-76
2022/05/20 07:55:29;;;;;;;2.50;1.30;;;26.90;89.80;;;;;;4987027;28;20457;-75
2022/05/20 07:57:55;;;;;;;7.73;4.50;;;27.30;89.60;;;;;;4979453;28;20435;-76
2022/05/20 08:00:22;;;;;;;4.73;1.60;;;27.80;86.20;;;;;;4994332;28;20892;-78
2022/05/20 08:02:48;;;;;;;2.97;1.70;;;28.30;84.80;;;;;;4990718;28;20637;-76
2022/05/20 08:05:17;;;;;;;3.70;3.00;;;28.40;84.50;;;;;;4991289;28;20431;-76
2022/05/20 08:07:45;;;;;;;2.53;1.57;;;27.30;82.50;;;;;;4980463;28;20471;-78
2022/05/20 08:10:21;;;;;;;2.77;1.80;;;26.40;89.80;;;;;;4978303;28;20436;-77
2022/05/20 08:12:47;;;;;;;2.57;2.10;;;26.20;91.40;;;;;;4987332;28;20470;-76
2022/05/20 08:15:13;;;;;;;3.57;1.63;;;25.80;89.30;;;;;;4993535;28;20452;-75
2022/05/20 08:17:43;;;;;;;2.60;1.80;;;25.70;93.20;;;;;;4984261;28;20173;-77
2022/05/20 08:20:16;;;;;;;5.47;2.53;;;25.90;88.50;;;;;;4993481;28;20424;-75
2022/05/20 08:22:41;;;;;;;3.13;1.90;;;25.90;91.30;;;;;;4993880;28;20424;-76
2022/05/20 08:25:07;;;;;;;3.70;2.60;;;26.00;94.50;;;;;;4989299;28;20431;-75
2022/05/20 08:27:33;;;;;;;4.03;2.20;;;26.30;94.20;;;;;;4986663;28;20719;-75
2022/05/20 08:30:09;;;;;;;4.43;2.27;;;25.90;93.40;;;;;;4988047;28;20672;-75
2022/05/20 08:32:35;;;;;;;4.93;2.10;;;25.60;95.50;;;;;;4983629;28;20444;-75
2022/05/20 08:35:00;;;;;;;3.03;1.83;;;26.10;94.80;;;;;;4958362;28;20460;-76
2022/05/20 08:37:26;;;;;;;3.10;1.87;;;26.20;91.10;;;;;;4986605;28;20214;-76
2022/05/20 08:39:51;;;;;;;2.63;2.10;;;25.70;94.10;;;;;;4989570;28;20528;-75
2022/05/20 08:42:22;;;;;;;5.20;1.70;;;25.40;94.70;;;;;;4993431;28;20193;-75
2022/05/20 08:44:48;;;;;;;1.93;1.73;;;25.10;95.40;;;;;;4993464;28;20633;-75
2022/05/20 08:47:23;;;;;;;3.13;1.70;;;25.10;96.30;;;;;;4993441;28;20416;-75
2022/05/20 08:49:57;;;;;;;2.53;1.80;;;24.90;96.30;;;;;;4993196;28;20600;-75
2022/05/20 08:52:23;;;;;;;7.93;1.60;;;25.10;96.30;;;;;;4991751;28;21014;-76
2022/05/20 08:54:48;;;;;;;4.57;2.00;;;25.50;96.30;;;;;;4993301;28;20498;-75
2022/05/20 08:57:28;;;;;;;2.10;1.60;;;25.60;96.30;;;;;;4993230;28;20412;-75
2022/05/20 08:59:54;;;;;;;1.83;1.73;;;25.30;96.30;;;;;;4993225;28;20169;-75
2022/05/20 09:02:21;;;;;;;1.50;1.37;;;25.30;96.30;;;;;;4993105;28;20432;-75
2022/05/20 09:04:47;;;;;;;1.63;1.53;;;25.70;92.30;;;;;;4993126;28;20932;-75
2022/05/20 09:07:15;;;;;;;2.70;1.63;;;25.70;92.60;;;;;;4991568;28;20434;-75
2022/05/20 09:09:48;;;;;;;2.70;1.83;;;25.90;92.70;;;;;;4977988;28;20519;-78
2022/05/20 09:12:28;;;;;;;3.87;2.10;;;25.40;91.10;;;;;;4977847;28;20463;-76
2022/05/20 09:18:04;;;;;;;3.80;2.20;;;25.20;91.90;;;;;;4999665;28;20451;-75
2022/05/20 09:20:30;;;;;;;2.13;1.80;;;24.70;92.80;;;;;;4985180;28;20791;-75
2022/05/20 09:23:02;;;;;;;4.07;2.20;;;24.20;95.00;;;;;;4992783;28;20568;-76
2022/05/20 09:25:30;;;;;;;2.43;2.03;;;24.30;95.70;;;;;;4991428;28;20239;-75
2022/05/20 09:28:29;;;;;;;3.97;1.97;;;24.30;94.90;;;;;;4992540;28;20499;-75
2022/05/20 09:31:06;;;;;;;2.10;1.90;;;24.60;96.30;;;;;;4985044;28;20444;-75
2022/05/20 09:33:35;;;;;;;2.70;2.00;;;25.00;94.60;;;;;;4987451;28;20924;-75
2022/05/20 09:36:02;;;;;;;2.07;1.60;;;25.70;93.50;;;;;;4973244;28;20460;-75
2022/05/20 09:38:30;;;;;;;2.70;1.93;;;25.80;91.10;;;;;;4973041;28;20459;-77
2022/05/20 09:40:56;;;;;;;3.40;2.17;;;25.10;93.60;;;;;;4973218;28;20437;-75
2022/05/20 09:43:28;;;;;;;4.40;2.37;;;25.70;96.30;;;;;;4955906;28;20439;-75
2022/05/20 09:45:55;;;;;;;2.03;1.80;;;26.40;96.30;;;;;;4975948;28;20719;-75
2022/05/20 09:48:36;;;;;;;2.20;2.00;;;26.30;91.70;;;;;;4980272;28;20440;-76
2022/05/20 09:51:37;;;;;;;5.20;2.30;;;26.00;91.70;;;;;;4986012;28;20452;-75
2022/05/20 09:54:29;;;;;;;2.60;2.03;;;25.50;95.30;;;;;;4973168;28;20436;-75
2022/05/20 09:57:04;;;;;;;4.17;2.00;;;25.60;91.70;;;;;;4987107;28;20915;-75
2022/05/20 09:59:50;;;;;;;3.37;2.10;;;25.70;96.30;;;;;;4994253;28;20753;-76
2022/05/20 10:02:43;;;;;;;2.90;2.10;;;26.00;96.30;;;;;;4996218;28;20507;-76
2022/05/20 10:05:19;;;;;;;3.67;2.30;;;26.50;94.10;;;;;;4979197;28;20775;-78
2022/05/20 10:08:04;;;;;;;3.30;1.90;;;25.90;92.10;;;;;;4980525;28;21880;-77
2022/05/20 10:11:00;;;;;;;3.60;2.43;;;26.10;91.80;;;;;;4980412;28;20833;-76
2022/05/20 10:13:49;;;;;;;5.43;2.13;;;25.80;91.90;;;;;;4976752;28;20413;-76
2022/05/20 10:16:28;;;;;;;3.27;2.17;;;25.90;93.60;;;;;;4976783;28;20452;-75
2022/05/20 10:19:39;;;;;;;4.50;2.60;;;25.40;95.20;;;;;;4977776;28;20492;-78
2022/05/20 10:22:49;;;;;;;4.70;2.43;;;25.80;96.30;;;;;;4975861;28;20459;-76
2022/05/20 10:25:44;;;;;;;2.83;2.57;;;26.00;95.80;;;;;;4951333;28;20439;-75
2022/05/20 10:34:09;;;;;;;3.60;2.47;;;26.00;95.40;;;;;;4995420;28;20446;-76
2022/05/20 10:36:59;;;;;;;4.40;2.87;;;25.90;96.30;;;;;;4995615;28;20947;-75
2022/05/20 10:39:34;;;;;;;2.77;2.50;;;26.00;96.30;;;;;;4995552;28;20412;-76
2022/05/20 10:42:20;;;;;;;4.93;2.57;;;26.20;94.50;;;;;;4995765;28;20486;-75
2022/05/20 10:50:35;;;;;;;4.43;2.00;;;26.40;91.30;;;;;;4995375;28;20641;-75
2022/05/20 10:53:27;;;;;;;1.87;1.77;;;26.50;92.50;;;;;;4995497;28;20447;-76
2022/05/20 10:56:27;;;;;;;3.93;2.13;;;26.90;94.30;;;;;;4994153;28;20491;-77
2022/05/20 10:59:06;;;;;;;2.60;2.40;;;25.90;96.30;;;;;;4995210;28;20412;-76
2022/05/20 11:01:53;;;;;;;2.33;1.87;;;25.80;95.90;;;;;;4995059;28;20443;-75
2022/05/20 11:04:31;;;;;;;2.53;2.00;;;25.80;95.60;;;;;;4995417;28;20470;-78
2022/05/20 11:07:36;;;;;;;4.60;2.67;;;25.60;95.60;;;;;;4995315;28;20984;-76
2022/05/20 11:10:15;;;;;;;3.27;2.20;;;26.10;95.90;;;;;;4977002;28;20430;-75
2022/05/20 11:12:57;;;;;;;3.73;2.33;;;25.60;95.10;;;;;;4995005;28;20431;-75
2022/05/20 11:15:44;;;;;;;5.43;2.60;;;25.30;95.00;;;;;;4994759;28;20452;-76
2022/05/20 11:18:27;;;;;;;2.67;2.03;;;25.10;96.30;;;;;;4994873;28;20420;-75
2022/05/20 11:21:23;;;;;;;2.93;2.20;;;25.60;96.30;;;;;;4977486;28;20970;-76
2022/05/20 11:24:05;;;;;;;5.10;2.70;;;26.10;96.30;;;;;;4980256;28;20800;-76
2022/05/20 11:26:51;;;;;;;4.73;2.57;;;25.90;96.30;;;;;;4979296;28;21255;-77
2022/05/20 11:29:36;;;;;;;2.30;1.83;;;25.90;96.30;;;;;;4991734;28;20941;-75
2022/05/20 11:32:11;;;;;;;4.10;2.40;;;25.60;96.30;;;;;;4981023;28;20447;-77
2022/05/20 11:35:01;;;;;;;2.77;2.23;;;25.50;96.30;;;;;;4981678;28;20938;-75
2022/05/20 11:37:57;;;;;;;4.33;2.50;;;25.70;96.30;;;;;;5014120;28;20403;-78
2022/05/20 11:40:50;;;;;;;4.10;2.17;;;26.00;96.30;;;;;;5001625;28;20511;-77
2022/05/20 11:43:31;;;;;;;3.00;2.63;;;26.50;95.50;;;;;;4994437;28;20408;-75
2022/05/20 11:46:19;;;;;;;7.97;2.33;;;26.90;96.30;;;;;;4977284;28;20466;-75
2022/05/20 11:49:26;;;;;;;3.33;2.30;;;27.30;94.10;;;;;;4994200;28;20416;-77
2022/05/20 11:52:42;;;;;;;4.50;2.43;;;28.00;95.50;;;;;;4994525;28;20436;-75
2022/05/20 11:55:17;;;;;;;4.43;2.43;;;28.60;88.60;;;;;;4946580;28;20504;-75
2022/05/20 11:57:46;;;;;;;3.43;1.83;;;27.70;89.90;;;;;;4992675;28;20412;-76
2022/05/20 12:00:15;;;;;;;3.17;2.60;;;26.90;93.30;;;;;;4993596;28;20481;-75
2022/05/20 12:02:51;;;;;;;6.90;2.47;;;27.00;91.90;;;;;;4993952;28;20417;-76
2022/05/20 12:05:21;;;;;;;3.67;2.17;;;27.50;94.20;;;;;;4994030;28;20502;-76
2022/05/20 12:07:47;;;;;;;7.50;2.70;;;28.10;90.50;;;;;;4993874;28;20904;-76
2022/05/20 12:10:38;;;;;;;5.77;2.50;;;28.00;89.00;;;;;;4994107;28;20420;-75
2022/05/20 12:13:23;;;;;;;4.07;2.27;;;28.50;88.60;;;;;;4993765;28;20184;-75
2022/05/20 12:16:09;;;;;;;2.83;2.57;;;28.40;89.10;;;;;;4993647;28;20818;-78
2022/05/20 12:24:35;;;;;;;2.60;2.23;;;28.20;94.60;;;;;;4989002;28;20475;-77
2022/05/20 12:27:02;;;;;;;5.77;2.47;;;28.40;89.70;;;;;;4993084;28;20429;-77
2022/05/20 12:29:42;;;;;;;3.10;2.43;;;28.50;87.10;;;;;;4975769;28;20416;-76
2022/05/20 12:32:29;;;;;;;4.70;2.20;;;28.10;85.90;;;;;;4964319;28;20447;-77
2022/05/20 12:35:27;;;;;;;2.97;2.30;;;28.60;84.60;;;;;;4977206;28;20468;-77
2022/05/20 12:37:56;;;;;;;3.40;2.07;;;28.30;85.90;;;;;;4969122;28;20453;-75
2022/05/20 12:40:28;;;;;;;2.97;2.00;;;28.20;90.10;;;;;;4987598;28;20566;-77
2022/05/20 12:43:06;;;;;;;3.97;2.47;;;28.70;87.80;;;;;;5013160;28;21005;-77
2022/05/20 12:45:52;;;;;;;4.83;2.23;;;28.80;86.20;;;;;;5013181;28;20399;-77
2022/05/20 12:48:21;;;;;;;5.23;1.80;;;28.90;80.50;;;;;;5009658;28;20978;-77
2022/05/20 12:51:08;;;;;;;4.10;2.07;;;28.80;83.20;;;;;;4992700;28;20448;-76
2022/05/20 12:53:36;;;;;;;6.57;2.20;;;29.10;83.70;;;;;;4992189;28;20420;-75
2022/05/20 12:56:02;;;;;;;3.60;2.53;;;29.70;85.80;;;;;;4976055;28;20975;-76
2022/05/20 12:58:32;;;;;;;2.97;2.17;;;29.40;83.10;;;;;;4975595;28;20432;-75
2022/05/20 13:01:01;;;;;;;3.63;1.90;;;29.90;87.00;;;;;;4985538;28;21020;-76
2022/05/20 13:03:44;;;;;;;3.80;2.10;;;29.70;82.30;;;;;;4992937;28;20440;-76
2022/05/20 13:06:17;;;;;;;4.03;2.20;;;29.50;85.40;;;;;;4992663;28;20431;-75
2022/05/20 13:09:06;;;;;;;2.93;2.00;;;29.80;88.10;;;;;;4992836;28;20408;-76
2022/05/20 13:11:43;;;;;;;4.73;1.80;;;30.20;82.80;;;;;;4991943;28;20451;-76
2022/05/20 13:14:14;;;;;;;2.40;2.20;;;29.80;82.40;;;;;;4992849;28;20478;-76
2022/05/20 13:16:44;;;;;;;2.33;2.00;;;30.70;87.40;;;;;;4992781;28;20517;-77
2022/05/20 13:19:13;;;;;;;2.00;1.73;;;31.00;77.70;;;;;;4993168;28;20412;-76
2022/05/20 13:21:47;;;;;;;2.07;1.60;;;30.70;79.20;;;;;;4992785;28;20439;-75
2022/05/20 13:24:25;;;;;;;5.20;1.60;;;29.90;80.60;;;;;;4992875;28;20934;-75
2022/05/20 13:27:04;;;;;;;3.40;2.00;;;28.70;81.80;;;;;;4992820;28;20412;-74
2022/05/20 13:29:30;;;;;;;4.60;2.30;;;28.60;82.80;;;;;;4992652;28;20392;-75
2022/05/20 13:32:11;;;;;;;2.77;2.10;;;29.00;84.20;;;;;;4975245;28;20963;-74
2022/05/20 13:34:42;;;;;;;5.10;1.97;;;29.30;81.20;;;;;;4992090;28;20169;-74
2022/05/20 13:37:11;;;;;;;5.53;1.87;;;29.50;82.70;;;;;;4992507;28;20420;-75
2022/05/20 13:39:37;;;;;;;2.13;1.70;;;29.00;79.80;;;;;;4992396;28;20559;-74
2022/05/20 13:42:07;;;;;;;2.90;2.20;;;28.60;85.50;;;;;;4992794;28;20512;-76
2022/05/20 13:44:33;;;;;;;4.63;1.83;;;29.40;83.80;;;;;;4992986;28;20176;-76
2022/05/20 13:49:48;;;;;;;4.83;1.50;;;29.60;81.00;;;;;;4992293;28;20180;-75
2022/05/20 13:52:15;;;;;;;4.10;1.80;;;29.20;81.70;;;;;;4992206;28;20446;-74
2022/05/20 13:54:45;;;;;;;4.63;2.17;;;28.80;82.80;;;;;;4983715;28;20428;-75
2022/05/20 13:57:20;;;;;;;5.60;2.20;;;29.10;80.50;;;;;;4991572;28;20455;-76
2022/05/20 13:59:49;;;;;;;7.70;2.37;;;29.20;78.60;;;;;;4992189;28;20470;-75
2022/05/20 14:02:17;;;;;;;2.27;1.87;;;29.30;79.80;;;;;;4992277;28;20428;-75
2022/05/20 14:04:47;;;;;;;2.90;2.03;;;28.80;80.20;;;;;;4992210;28;20408;-75
2022/05/20 14:07:34;;;;;;;1.80;1.70;;;29.30;78.60;;;;;;4977919;28;20512;-76
2022/05/20 14:10:24;;;;;;;3.00;1.93;;;29.40;79.10;;;;;;4964001;28;20425;-78
2022/05/20 14:12:57;;;;;;;1.90;1.80;;;28.80;79.20;;;;;;4963122;28;20421;-77
2022/05/20 14:15:31;;;;;;;7.37;2.27;;;29.30;77.10;;;;;;4982879;28;20467;-78
2022/05/20 14:18:09;;;;;;;3.97;2.43;;;30.00;79.10;;;;;;4987809;28;20437;-77
2022/05/20 14:20:38;;;;;;;7.77;2.27;;;30.70;76.80;;;;;;4994217;28;20464;-78
2022/05/20 14:23:08;;;;;;;3.40;2.07;;;30.60;75.20;;;;;;4964631;28;21109;-74
2022/05/20 14:25:58;;;;;;;4.80;1.90;;;30.50;76.30;;;;;;4977439;28;20433;-76
2022/05/20 14:28:46;;;;;;;2.00;1.70;;;30.00;76.80;;;;;;4982021;28;21037;-77
2022/05/20 14:31:21;;;;;;;4.33;1.97;;;29.20;77.40;;;;;;4944637;28;20448;-78
2022/05/20 14:33:50;;;;;;;5.57;2.03;;;29.50;80.00;;;;;;4990301;28;20443;-76
2022/05/20 14:36:17;;;;;;;3.53;2.43;;;29.60;77.10;;;;;;4980612;28;20818;-77
2022/05/20 14:38:46;;;;;;;2.67;2.00;;;29.80;75.80;;;;;;4989597;28;20448;-76
2022/05/20 14:41:24;;;;;;;2.70;1.90;;;29.40;76.20;;;;;;4962248;28;20437;-76
2022/05/20 14:44:08;;;;;;;3.77;2.30;;;29.40;81.30;;;;;;4980015;28;20404;-76
2022/05/20 14:49:32;;;;;;;3.50;2.00;;;29.40;80.20;;;;;;4984092;28;20771;-76
2022/05/20 14:51:58;;;;;;;5.13;2.20;;;29.90;77.20;;;;;;4984984;28;20817;-76
2022/05/20 14:54:45;;;;;;;94.50;19.63;;;30.10;74.50;;;;;;4966171;28;20800;-77
2022/05/20 14:57:17;;;;;;;2.03;1.83;;;30.30;75.50;;;;;;4984219;28;20902;-76
2022/05/20 14:59:42;;;;;;;8.97;3.47;;;30.30;74.90;;;;;;4983882;28;20411;-77
2022/05/20 15:02:07;;;;;;;2.27;2.07;;;29.50;76.60;;;;;;4992744;28;20803;-77
2022/05/20 15:04:33;;;;;;;6.80;2.60;;;29.40;76.20;;;;;;4984029;28;20184;-78
2022/05/20 15:07:01;;;;;;;7.70;2.20;;;29.30;78.00;;;;;;4997460;28;20181;-79
2022/05/20 15:09:35;;;;;;;4.33;2.30;;;29.40;77.10;;;;;;4996324;28;20211;-79
2022/05/20 15:12:06;;;;;;;4.67;2.27;;;29.30;76.90;;;;;;4997612;28;20482;-77
2022/05/20 15:14:31;;;;;;;4.57;2.17;;;29.00;78.70;;;;;;4988230;28;20484;-77
2022/05/20 15:16:57;;;;;;;5.47;2.23;;;29.30;77.90;;;;;;4978388;28;20417;-77
2022/05/20 15:19:23;;;;;;;3.30;2.20;;;29.30;80.00;;;;;;4978864;28;20181;-77
2022/05/20 15:21:50;;;;;;;2.83;1.90;;;29.90;77.40;;;;;;4979853;28;20197;-77
2022/05/20 15:24:26;;;;;;;5.27;2.27;;;29.90;76.40;;;;;;4992091;28;20439;-79
2022/05/20 15:26:53;;;;;;;5.80;1.60;;;29.80;75.50;;;;;;4976152;28;20809;-78
2022/05/20 15:29:19;;;;;;;4.40;1.97;;;28.80;78.00;;;;;;4996401;28;20404;-77
2022/05/20 15:37:29;;;;;;;4.37;2.07;;;29.20;77.90;;;;;;4987032;28;20887;-78
2022/05/20 15:40:18;;;;;;;3.33;2.03;;;29.00;77.20;;;;;;4998738;28;20415;-77
2022/05/20 15:42:43;;;;;;;2.90;2.03;;;29.20;77.00;;;;;;4982379;28;20416;-78
2022/05/20 15:45:12;;;;;;;3.10;2.40;;;29.00;77.80;;;;;;4998565;28;20424;-78
2022/05/20 15:47:38;;;;;;;13.70;2.20;;;29.30;77.70;;;;;;4996718;28;20204;-78
2022/05/20 15:50:04;;;;;;;12.57;1.90;;;29.30;77.00;;;;;;4999104;28;20408;-79
2022/05/20 15:52:34;;;;;;;3.10;2.10;;;29.30;79.60;;;;;;5000353;28;20236;-79
2022/05/20 15:55:04;;;;;;;5.67;2.20;;;29.10;82.50;;;;;;4998949;28;20550;-78
2022/05/20 15:57:34;;;;;;;10.33;2.03;;;28.90;83.40;;;;;;4998621;28;20931;-78
2022/05/20 15:59:59;;;;;;;10.53;2.20;;;28.90;83.80;;;;;;4999867;28;20475;-78
2022/05/20 16:02:26;;;;;;;6.90;2.40;;;28.90;83.90;;;;;;4996852;28;20451;-77
2022/05/20 16:05:16;;;;;;;3.33;2.37;;;29.00;86.30;;;;;;4993469;28;20174;-78
2022/05/20 16:07:40;;;;;;;3.93;2.10;;;28.80;87.20;;;;;;4986702;28;20404;-78
2022/05/20 16:10:06;;;;;;;2.17;1.90;;;28.70;85.90;;;;;;4985303;28;20441;-78
2022/05/20 16:12:32;;;;;;;4.03;1.87;;;28.60;88.70;;;;;;4991494;28;20484;-78
2022/05/20 16:14:57;;;;;;;2.97;2.30;;;28.20;85.40;;;;;;4987689;28;20884;-78
2022/05/20 16:17:23;;;;;;;4.47;2.37;;;28.00;89.20;;;;;;4990220;28;20184;-78
2022/05/20 16:19:48;;;;;;;4.27;2.20;;;27.80;88.90;;;;;;4991952;28;20203;-78
2022/05/20 16:22:15;;;;;;;5.57;2.03;;;27.70;92.50;;;;;;4990623;28;20613;-77
2022/05/20 16:24:42;;;;;;;4.70;2.43;;;27.60;92.40;;;;;;5004057;28;20209;-75
2022/05/20 16:27:07;;;;;;;9.60;2.17;;;27.40;94.70;;;;;;4978825;28;20571;-76
2022/05/20 16:29:33;;;;;;;4.67;2.27;;;27.20;94.60;;;;;;4988152;28;20889;-78
2022/05/20 16:31:58;;;;;;;4.13;2.23;;;27.00;96.10;;;;;;4975844;28;20228;-76
2022/05/20 16:34:26;;;;;;;72.53;5.90;;;26.80;93.90;;;;;;4974557;28;20553;-79
2022/05/20 16:36:52;;;;;;;32.03;4.47;;;26.60;90.00;;;;;;4975641;28;20232;-75
2022/05/20 16:39:17;;;;;;;9.40;2.10;;;26.40;93.30;;;;;;4974114;28;20497;-76
2022/05/20 16:55:51;;;;;;;9.77;2.60;;;25.60;96.30;;;;;;1175791;22;21461;-76
2022/05/20 17:03:44;;;;;;;3.90;2.07;;;25.30;96.30;;;;;;4993243;28;20887;-75
2022/05/20 17:06:10;;;;;;;3.20;2.37;;;25.30;96.30;;;;;;4972371;28;20405;-76
2022/05/20 17:08:37;;;;;;;5.37;2.47;;;25.10;96.30;;;;;;4989910;28;20255;-76
2022/05/20 17:11:03;;;;;;;3.50;2.27;;;25.00;96.30;;;;;;4993069;28;20193;-76
2022/05/20 17:13:28;;;;;;;3.40;2.00;;;24.70;96.30;;;;;;4993012;28;20764;-75
2022/05/20 17:15:54;;;;;;;3.87;2.43;;;24.60;96.30;;;;;;4972129;28;20201;-76
2022/05/20 17:18:20;;;;;;;3.23;2.70;;;24.40;96.30;;;;;;4988534;28;20633;-75
2022/05/20 17:20:46;;;;;;;4.70;2.20;;;24.30;96.30;;;;;;4992808;28;20279;-74
2022/05/20 17:25:58;;;;;;;6.90;2.63;;;23.90;96.30;;;;;;4986396;28;20164;-77
2022/05/20 17:28:24;;;;;;;7.83;2.57;;;23.80;96.30;;;;;;4971781;28;20420;-77
2022/05/20 17:30:50;;;;;;;5.30;2.50;;;23.60;96.30;;;;;;4975492;28;20478;-77
2022/05/20 17:33:15;;;;;;;5.63;2.30;;;23.50;96.30;;;;;;4992877;28;20912;-77
2022/05/20 17:35:41;;;;;;;6.30;2.37;;;23.30;96.30;;;;;;4992962;28;20205;-78
2022/05/20 17:38:06;;;;;;;3.17;2.30;;;23.20;96.30;;;;;;4971840;28;20174;-81
2022/05/20 17:40:32;;;;;;;3.20;2.53;;;22.90;96.30;;;;;;4985710;28;20173;-79
2022/05/20 17:42:58;;;;;;;3.27;2.60;;;22.70;96.30;;;;;;4993115;28;20653;-82
2022/05/20 17:45:24;;;;;;;10.00;2.77;;;22.50;96.30;;;;;;4992471;28;20479;-83
2022/05/20 17:47:50;;;;;;;3.50;2.30;;;22.40;96.30;;;;;;4981901;28;20247;-82
2022/05/20 17:50:15;;;;;;;4.40;2.83;;;22.30;96.30;;;;;;4968474;28;20178;-82
2022/05/20 17:52:41;;;;;;;12.10;3.50;;;22.30;96.30;;;;;;4967645;28;20542;-81
2022/05/20 17:55:07;;;;;;;4.67;3.57;;;22.10;96.30;;;;;;4985990;28;20674;-78
2022/05/20 17:57:33;;;;;;;2.93;2.67;;;21.80;96.30;;;;;;4991886;28;20604;-79
2022/05/20 17:59:58;;;;;;;10.67;3.20;;;21.50;96.30;;;;;;4994967;28;20502;-79
2022/05/20 18:02:27;;;;;;;8.30;4.50;;;21.30;96.30;;;;;;5015822;28;20197;-79
2022/05/20 18:04:53;;;;;;;5.20;4.77;;;21.20;96.30;;;;;;4988928;28;20175;-79
2022/05/20 18:07:18;;;;;;;3.60;3.20;;;21.20;96.30;;;;;;4957322;28;20436;-81
2022/05/20 18:09:44;;;;;;;4.10;3.00;;;21.30;96.30;;;;;;4975302;28;20776;-81
2022/05/20 18:12:12;;;;;;;15.20;3.20;;;21.40;96.30;;;;;;4984650;28;20615;-79
2022/05/20 18:14:40;;;;;;;5.23;3.67;;;21.50;96.30;;;;;;4998021;28;20165;-81
2022/05/20 18:17:07;;;;;;;8.90;2.70;;;21.40;96.30;;;;;;4984052;28;20457;-80
2022/05/20 18:19:34;;;;;;;4.33;2.90;;;21.40;96.30;;;;;;5009139;28;20404;-81
2022/05/20 18:22:01;;;;;;;4.20;2.93;;;21.30;96.30;;;;;;4985331;28;20444;-81
2022/05/20 18:24:36;;;;;;;4.50;3.13;;;21.20;96.30;;;;;;4961710;28;20899;-80